Airfield :
LOGIN :

Register | Disclaimer

   EN    FR    IT 

 










Legend :    VFR   Marginal VFR   IFR   Intensive IFR   Very Intensive IFR
Visi :
Ceiling :
>= 8 km
>= 3000ft
5 to 8 km
1000 to 3000 ft
1500m to 5 km
500 to 1000 ft
800 to 1500m
200 to 500 ft
< 800m
< 200 ft
Symbols :   Thunderstorms  Fog  Heavy snow  Heavy precipitations  Wind > 20 kt
SIGMETs :     Misc.  Thunderstorms  Icing  Turbulence  Mountain Waves  Volcanic Ashes







- Airport Elevation : 122 ft
- IATA code : TXL


EDDT - Berlin Tegel Int.

CURRENT METAR :
  • 210720Z 08008KT 040V130 9999 BKN019 BKN035 01/M03 Q1021 NOSIG

EXPIRED METARs :
  • 210650Z 08008KT 040V110 9999 BKN020 BKN035 01/M03 Q1021 NOSIG
  • 210620Z 07008KT 030V110 9999 BKN019 BKN035 01/M03 Q1020 NOSIG
  • 210550Z 07008KT 040V120 9999 SCT018 BKN036 01/M03 Q1020 NOSIG
  • 210520Z 09010KT 050V130 9999 FEW020 SCT041 BKN048 01/M03 Q1020 NOSIG
  • 210450Z 09008KT 050V120 9999 SCT020 SCT035 01/M03 Q1020 NOSIG
  • 210420Z 09009KT 050V120 9999 SCT020 BKN034 01/M03 Q1019 NOSIG

TAF TAF EDDT
Valid from the 21 at 06:00 until the 22 at 06:00 UTC


210500Z 2106/2206 07010KT 9999 BKN020
PROB40
TEMPO 2106/2206 BKN012
No reported NOTAMs for that airfield.



MET'MAP, your aeronautical weather chart ! - Copyright ORBIFLY December 2007 - Disclaimer

ORBIFLY MET'MAP TEAM :

Programming & Development : Alexandra Zaïnal
Concept & Development : Baudouin d'Aumeries
Co-Development & Prog : Marc-Olivier Méhu
Technical & hardware support : Manuel Goepfert

Contact : metmap@orbifly.com




SOURCES & CREDITS :

   NOAA